Time,TemperatureF,DewpointF,PressureIn,WindDirection,WindDirectionDegrees,WindSpeedMPH,WindSpeedGustMPH,Humidity,HourlyPrecipIn,Conditions,Clouds,dailyrainin,SoftwareType,DateUTC
2013-01-26 00:07:00,56.1,55.0,30.17,South,182,0.0,0.0,96,0.00,,,0.00,Wunderground v.1.15,2013-01-26 06:07:00,
2013-01-26 00:17:00,56.1,55.0,30.17,South,182,0.0,0.0,96,0.00,,,0.00,Wunderground v.1.15,2013-01-26 06:17:00,
2013-01-26 00:22:00,56.1,55.0,30.17,South,182,0.0,0.0,96,0.00,,,0.00,Wunderground v.1.15,2013-01-26 06:22:00,
2013-01-26 00:27:00,56.3,55.2,30.16,South,182,0.0,0.0,96,0.00,,,0.00,Wunderground v.1.15,2013-01-26 06:27:00,
2013-01-26 00:32:00,56.5,55.4,30.16,South,182,0.0,0.0,96,0.00,,,0.00,Wunderground v.1.15,2013-01-26 06:32:00,
2013-01-26 00:37:00,56.7,55.9,30.16,South,182,0.0,0.0,97,0.00,,,0.00,Wunderground v.1.15,2013-01-26 06:37:00,
2013-01-26 00:42:00,57.0,56.2,30.16,South,182,0.0,0.0,97,0.00,,,0.00,Wunderground v.1.15,2013-01-26 06:42:00,
2013-01-26 00:47:00,57.3,56.5,30.16,South,182,0.0,0.0,97,0.00,,,0.00,Wunderground v.1.15,2013-01-26 06:47:00,
2013-01-26 00:52:00,57.5,56.7,30.16,South,182,0.0,0.0,97,0.00,,,0.00,Wunderground v.1.15,2013-01-26 06:52:00,
2013-01-26 00:57:00,57.4,56.6,30.16,South,182,0.0,1.0,97,0.00,,,0.00,Wunderground v.1.15,2013-01-26 06:57:00,
2013-01-26 01:07:00,57.5,56.7,30.16,South,182,0.0,0.0,97,0.00,,,0.00,Wunderground v.1.15,2013-01-26 07:07:00,
2013-01-26 01:12:00,57.4,56.6,30.16,South,182,0.0,0.0,97,0.00,,,0.00,Wunderground v.1.15,2013-01-26 07:12:00,
2013-01-26 01:17:00,57.3,56.2,30.16,South,182,0.0,0.0,96,0.00,,,0.00,Wunderground v.1.15,2013-01-26 07:17:00,
2013-01-26 01:22:00,57.3,56.5,30.16,South,182,0.0,0.0,97,0.00,,,0.00,Wunderground v.1.15,2013-01-26 07:22:00,
2013-01-26 01:27:00,57.4,56.6,30.16,South,182,0.0,0.0,97,0.00,,,0.00,Wunderground v.1.15,2013-01-26 07:27:00,
2013-01-26 01:32:00,57.5,56.7,30.15,South,178,0.0,0.0,97,0.00,,,0.00,Wunderground v.1.15,2013-01-26 07:32:00,
2013-01-26 01:37:00,57.6,56.8,30.15,SSE,161,0.0,1.0,97,0.00,,,0.00,Wunderground v.1.15,2013-01-26 07:37:00,
2013-01-26 01:42:00,57.7,56.9,30.15,South,176,0.0,2.0,97,0.00,,,0.00,Wunderground v.1.15,2013-01-26 07:42:00,
2013-01-26 01:47:00,57.8,57.0,30.15,South,173,0.0,0.0,97,0.00,,,0.00,Wunderground v.1.15,2013-01-26 07:47:00,
2013-01-26 01:52:00,57.9,57.1,30.15,South,175,0.0,0.0,97,0.00,,,0.00,Wunderground v.1.15,2013-01-26 07:52:00,
2013-01-26 01:57:00,57.9,57.1,30.15,SE,139,0.0,0.0,97,0.00,,,0.00,Wunderground v.1.15,2013-01-26 07:57:00,
2013-01-26 02:07:00,57.8,56.7,30.15,SE,139,0.0,0.0,96,0.00,,,0.00,Wunderground v.1.15,2013-01-26 08:07:00,
2013-01-26 02:12:00,57.6,56.5,30.15,SE,139,0.0,0.0,96,0.00,,,0.00,Wunderground v.1.15,2013-01-26 08:12:00,
2013-01-26 02:17:00,57.5,56.4,30.15,SE,139,0.0,0.0,96,0.00,,,0.00,Wunderground v.1.15,2013-01-26 08:17:00,
2013-01-26 02:22:00,57.3,56.2,30.15,SE,139,0.0,0.0,96,0.00,,,0.00,Wunderground v.1.15,2013-01-26 08:22:00,
2013-01-26 02:27:00,57.1,56.0,30.15,SE,139,0.0,0.0,96,0.00,,,0.00,Wunderground v.1.15,2013-01-26 08:27:00,
2013-01-26 02:32:00,57.0,55.9,30.15,SE,139,0.0,0.0,96,0.00,,,0.00,Wunderground v.1.15,2013-01-26 08:32:00,
2013-01-26 02:37:00,56.9,55.8,30.15,SE,139,0.0,0.0,96,0.00,,,0.00,Wunderground v.1.15,2013-01-26 08:37:00,
2013-01-26 02:42:00,56.8,55.7,30.15,SE,139,0.0,0.0,96,0.00,,,0.00,Wunderground v.1.15,2013-01-26 08:42:00,
2013-01-26 02:52:00,56.4,55.3,30.15,SE,139,0.0,0.0,96,0.00,,,0.00,Wunderground v.1.15,2013-01-26 08:52:00,
2013-01-26 02:57:00,56.3,55.2,30.15,SE,139,0.0,0.0,96,0.00,,,0.00,Wunderground v.1.15,2013-01-26 08:57:00,
2013-01-26 03:07:00,56.1,55.0,30.16,SE,139,0.0,0.0,96,0.00,,,0.00,Wunderground v.1.15,2013-01-26 09:07:00,
2013-01-26 03:12:00,55.9,54.8,30.15,SE,139,0.0,0.0,96,0.00,,,0.00,Wunderground v.1.15,2013-01-26 09:12:00,
2013-01-26 03:17:00,55.8,54.7,30.15,SE,139,0.0,0.0,96,0.00,,,0.00,Wunderground v.1.15,2013-01-26 09:17:00,
2013-01-26 03:22:00,55.7,54.6,30.15,SE,139,0.0,0.0,96,0.00,,,0.00,Wunderground v.1.15,2013-01-26 09:22:00,
2013-01-26 03:27:00,55.6,54.5,30.16,SE,139,0.0,0.0,96,0.00,,,0.00,Wunderground v.1.15,2013-01-26 09:27:00,
2013-01-26 03:32:00,55.7,54.9,30.16,SE,139,0.0,0.0,97,0.00,,,0.00,Wunderground v.1.15,2013-01-26 09:32:00,
2013-01-26 03:37:00,55.7,54.9,30.16,SE,139,0.0,0.0,97,0.00,,,0.00,Wunderground v.1.15,2013-01-26 09:37:00,
2013-01-26 03:42:00,55.6,54.8,30.16,SE,139,0.0,0.0,97,0.00,,,0.00,Wunderground v.1.15,2013-01-26 09:42:00,
2013-01-26 03:47:00,55.5,54.4,30.16,SE,139,0.0,0.0,96,0.00,,,0.00,Wunderground v.1.15,2013-01-26 09:47:00,
2013-01-26 03:52:00,55.4,54.3,30.16,SE,139,0.0,0.0,96,0.00,,,0.00,Wunderground v.1.15,2013-01-26 09:52:00,
2013-01-26 03:57:00,55.3,54.2,30.16,SE,139,0.0,0.0,96,0.00,,,0.00,Wunderground v.1.15,2013-01-26 09:57:00,
2013-01-26 04:07:00,55.4,54.6,30.15,SE,139,0.0,0.0,97,0.00,,,0.00,Wunderground v.1.15,2013-01-26 10:07:00,
2013-01-26 04:12:00,55.5,54.7,30.15,SE,139,0.0,0.0,97,0.00,,,0.00,Wunderground v.1.15,2013-01-26 10:12:00,
2013-01-26 04:17:00,55.5,54.7,30.16,SE,139,0.0,0.0,97,0.00,,,0.00,Wunderground v.1.15,2013-01-26 10:17:00,
2013-01-26 04:27:00,55.5,54.7,30.16,SE,139,0.0,0.0,97,0.00,,,0.00,Wunderground v.1.15,2013-01-26 10:27:00,
2013-01-26 04:32:00,55.4,54.6,30.16,SE,139,0.0,0.0,97,0.00,,,0.00,Wunderground v.1.15,2013-01-26 10:32:00,
2013-01-26 04:37:00,55.3,54.5,30.16,SE,139,0.0,0.0,97,0.00,,,0.00,Wunderground v.1.15,2013-01-26 10:37:00,
2013-01-26 04:42:00,55.2,54.4,30.16,SE,139,0.0,0.0,97,0.00,,,0.00,Wunderground v.1.15,2013-01-26 10:42:00,
2013-01-26 04:47:00,55.1,54.3,30.16,SE,139,0.0,0.0,97,0.00,,,0.00,Wunderground v.1.15,2013-01-26 10:47:00,
2013-01-26 04:52:00,55.1,54.3,30.16,SE,139,0.0,0.0,97,0.00,,,0.00,Wunderground v.1.15,2013-01-26 10:52:00,
2013-01-26 04:57:00,55.1,54.3,30.16,SE,139,0.0,0.0,97,0.00,,,0.00,Wunderground v.1.15,2013-01-26 10:57:00,
2013-01-26 05:07:00,55.2,54.4,30.16,SE,139,0.0,0.0,97,0.00,,,0.00,Wunderground v.1.15,2013-01-26 11:07:00,
2013-01-26 05:12:00,55.2,54.4,30.16,SE,139,0.0,0.0,97,0.00,,,0.00,Wunderground v.1.15,2013-01-26 11:12:00,
2013-01-26 05:17:00,55.1,54.3,30.17,SE,139,0.0,0.0,97,0.00,,,0.00,Wunderground v.1.15,2013-01-26 11:17:00,
2013-01-26 05:22:00,55.0,54.2,30.17,SE,139,0.0,0.0,97,0.00,,,0.00,Wunderground v.1.15,2013-01-26 11:22:00,
2013-01-26 05:27:00,54.9,54.1,30.17,SE,139,0.0,0.0,97,0.00,,,0.00,Wunderground v.1.15,2013-01-26 11:27:00,
2013-01-26 05:32:00,54.8,54.0,30.17,SE,139,0.0,0.0,97,0.00,,,0.00,Wunderground v.1.15,2013-01-26 11:32:00,
2013-01-26 05:37:00,54.9,54.1,30.17,SE,139,0.0,0.0,97,0.00,,,0.00,Wunderground v.1.15,2013-01-26 11:37:00,
2013-01-26 05:47:00,55.0,54.2,30.17,SE,139,0.0,0.0,97,0.00,,,0.00,Wunderground v.1.15,2013-01-26 11:47:00,
2013-01-26 05:52:00,54.9,54.1,30.17,SE,139,0.0,0.0,97,0.00,,,0.00,Wunderground v.1.15,2013-01-26 11:52:00,
2013-01-26 05:57:00,55.0,54.2,30.17,SE,139,0.0,0.0,97,0.00,,,0.00,Wunderground v.1.15,2013-01-26 11:57:00,
2013-01-26 06:07:00,54.9,54.1,30.18,SE,139,0.0,0.0,97,0.00,,,0.00,Wunderground v.1.15,2013-01-26 12:07:00,
2013-01-26 06:12:00,55.0,54.2,30.18,SE,139,0.0,0.0,97,0.00,,,0.00,Wunderground v.1.15,2013-01-26 12:12:00,
2013-01-26 06:17:00,55.0,54.2,30.18,SE,139,0.0,0.0,97,0.00,,,0.00,Wunderground v.1.15,2013-01-26 12:17:00,
2013-01-26 06:22:00,54.8,54.0,30.18,SE,139,0.0,0.0,97,0.00,,,0.00,Wunderground v.1.15,2013-01-26 12:22:00,
2013-01-26 06:27:00,54.8,54.0,30.18,SE,139,0.0,0.0,97,0.00,,,0.00,Wunderground v.1.15,2013-01-26 12:27:00,
2013-01-26 06:32:00,54.7,53.9,30.18,SE,139,0.0,0.0,97,0.00,,,0.00,Wunderground v.1.15,2013-01-26 12:32:00,
2013-01-26 06:37:00,54.7,53.9,30.19,SE,139,0.0,0.0,97,0.00,,,0.00,Wunderground v.1.15,2013-01-26 12:37:00,
2013-01-26 06:42:00,54.7,53.9,30.19,SE,139,0.0,0.0,97,0.00,,,0.00,Wunderground v.1.15,2013-01-26 12:42:00,
2013-01-26 06:47:00,54.6,53.8,30.19,SE,139,0.0,0.0,97,0.00,,,0.00,Wunderground v.1.15,2013-01-26 12:47:00,
2013-01-26 06:52:00,54.5,53.7,30.19,SE,139,0.0,0.0,97,0.00,,,0.00,Wunderground v.1.15,2013-01-26 12:52:00,
2013-01-26 06:57:00,54.5,53.7,30.19,SE,139,0.0,0.0,97,0.00,,,0.00,Wunderground v.1.15,2013-01-26 12:57:00,
2013-01-26 07:07:00,54.4,53.6,30.19,SE,139,0.0,0.0,97,0.00,,,0.00,Wunderground v.1.15,2013-01-26 13:07:00,
2013-01-26 07:12:00,54.5,53.7,30.19,SE,139,0.0,0.0,97,0.00,,,0.00,Wunderground v.1.15,2013-01-26 13:12:00,
2013-01-26 07:17:00,54.7,53.9,30.20,SE,139,0.0,0.0,97,0.00,,,0.00,Wunderground v.1.15,2013-01-26 13:17:00,
2013-01-26 07:22:00,54.8,54.0,30.20,SE,139,0.0,0.0,97,0.00,,,0.00,Wunderground v.1.15,2013-01-26 13:22:00,
2013-01-26 07:27:00,54.9,54.1,30.20,SE,139,0.0,0.0,97,0.00,,,0.00,Wunderground v.1.15,2013-01-26 13:27:00,
2013-01-26 07:32:00,55.1,54.3,30.20,SE,139,0.0,0.0,97,0.00,,,0.00,Wunderground v.1.15,2013-01-26 13:32:00,
2013-01-26 07:37:00,55.2,54.6,30.20,SE,139,0.0,0.0,98,0.00,,,0.00,Wunderground v.1.15,2013-01-26 13:37:00,
2013-01-26 07:42:00,55.3,54.7,30.20,SE,139,0.0,0.0,98,0.00,,,0.00,Wunderground v.1.15,2013-01-26 13:42:00,
2013-01-26 07:47:00,55.4,54.8,30.20,SE,139,0.0,0.0,98,0.00,,,0.00,Wunderground v.1.15,2013-01-26 13:47:00,
2013-01-26 07:52:00,55.6,55.0,30.20,SE,139,0.0,0.0,98,0.00,,,0.00,Wunderground v.1.15,2013-01-26 13:52:00,
2013-01-26 08:07:00,56.2,55.6,30.20,SE,139,0.0,0.0,98,0.00,,,0.00,Wunderground v.1.15,2013-01-26 14:07:00,
2013-01-26 08:12:00,56.5,55.9,30.20,SE,139,0.0,0.0,98,0.00,,,0.00,Wunderground v.1.15,2013-01-26 14:12:00,
2013-01-26 08:17:00,56.8,56.2,30.21,SE,139,0.0,0.0,98,0.00,,,0.00,Wunderground v.1.15,2013-01-26 14:17:00,
2013-01-26 08:22:00,57.3,56.7,30.21,SE,139,0.0,0.0,98,0.00,,,0.00,Wunderground v.1.15,2013-01-26 14:22:00,
2013-01-26 08:27:00,58.1,57.5,30.21,SE,139,0.0,0.0,98,0.00,,,0.00,Wunderground v.1.15,2013-01-26 14:27:00,
2013-01-26 08:37:00,59.0,58.4,30.22,SE,139,0.0,0.0,98,0.00,,,0.00,Wunderground v.1.15,2013-01-26 14:37:00,
2013-01-26 08:42:00,59.0,58.4,30.22,SE,139,0.0,0.0,98,0.00,,,0.00,Wunderground v.1.15,2013-01-26 14:42:00,
2013-01-26 08:47:00,59.3,58.7,30.22,SE,138,0.0,0.0,98,0.00,,,0.00,Wunderground v.1.15,2013-01-26 14:47:00,
2013-01-26 08:52:00,59.4,58.8,30.22,SE,138,0.0,0.0,98,0.00,,,0.00,Wunderground v.1.15,2013-01-26 14:52:00,
2013-01-26 08:57:00,59.6,59.0,30.22,SE,138,0.0,0.0,98,0.00,,,0.00,Wunderground v.1.15,2013-01-26 14:57:00,
2013-01-26 09:07:00,59.7,59.1,30.22,ENE,75,0.0,0.0,98,0.00,,,0.00,Wunderground v.1.15,2013-01-26 15:07:00,
2013-01-26 09:12:00,59.9,59.3,30.22,ENE,75,0.0,0.0,98,0.00,,,0.00,Wunderground v.1.15,2013-01-26 15:12:00,
2013-01-26 09:17:00,60.0,59.4,30.22,NE,50,0.0,0.0,98,0.00,,,0.00,Wunderground v.1.15,2013-01-26 15:17:00,
2013-01-26 09:22:00,60.2,59.6,30.22,NE,50,0.0,0.0,98,0.00,,,0.00,Wunderground v.1.15,2013-01-26 15:22:00,
2013-01-26 09:27:00,60.6,60.0,30.22,NE,55,0.0,0.0,98,0.00,,,0.00,Wunderground v.1.15,2013-01-26 15:27:00,
2013-01-26 09:32:00,60.8,60.2,30.22,NE,49,0.0,0.0,98,0.00,,,0.00,Wunderground v.1.15,2013-01-26 15:32:00,
2013-01-26 09:37:00,61.1,60.5,30.22,NE,49,0.0,0.0,98,0.00,,,0.00,Wunderground v.1.15,2013-01-26 15:37:00,
2013-01-26 09:42:00,61.4,60.5,30.22,NE,49,0.0,0.0,97,0.00,,,0.00,Wunderground v.1.15,2013-01-26 15:42:00,
2013-01-26 09:52:00,61.8,60.6,30.22,NE,49,0.0,0.0,96,0.00,,,0.00,Wunderground v.1.15,2013-01-26 15:52:00,
2013-01-26 09:57:00,62.0,60.8,30.22,NE,49,0.0,0.0,96,0.00,,,0.00,Wunderground v.1.15,2013-01-26 15:57:00,
2013-01-26 10:07:00,62.2,60.8,30.22,NE,49,0.0,0.0,95,0.00,,,0.00,Wunderground v.1.15,2013-01-26 16:07:00,
2013-01-26 10:12:00,62.7,60.9,30.22,NE,49,0.0,0.0,94,0.00,,,0.00,Wunderground v.1.15,2013-01-26 16:12:00,
2013-01-26 10:17:00,62.9,60.8,30.22,NE,49,0.0,0.0,93,0.00,,,0.00,Wunderground v.1.15,2013-01-26 16:17:00,
2013-01-26 10:22:00,63.1,61.0,30.22,NE,49,0.0,0.0,93,0.00,,,0.00,Wunderground v.1.15,2013-01-26 16:22:00,
2013-01-26 10:27:00,63.3,61.2,30.22,NE,49,0.0,0.0,93,0.00,,,0.00,Wunderground v.1.15,2013-01-26 16:27:00,
2013-01-26 10:32:00,63.5,61.1,30.22,NE,49,0.0,0.0,92,0.00,,,0.00,Wunderground v.1.15,2013-01-26 16:32:00,
2013-01-26 10:37:00,63.8,61.4,30.22,NE,49,0.0,0.0,92,0.00,,,0.00,Wunderground v.1.15,2013-01-26 16:37:00,
2013-01-26 10:42:00,64.2,61.8,30.22,NE,49,0.0,0.0,92,0.00,,,0.00,Wunderground v.1.15,2013-01-26 16:42:00,
2013-01-26 10:47:00,64.8,62.4,30.22,NE,49,0.0,0.0,92,0.00,,,0.00,Wunderground v.1.15,2013-01-26 16:47:00,
2013-01-26 10:52:00,65.5,63.1,30.22,NE,49,0.0,0.0,92,0.00,,,0.00,Wunderground v.1.15,2013-01-26 16:52:00,
2013-01-26 10:57:00,66.2,63.2,30.22,NE,49,0.0,0.0,90,0.00,,,0.00,Wunderground v.1.15,2013-01-26 16:57:00,
2013-01-26 11:07:00,67.3,63.6,30.21,NE,49,0.0,0.0,88,0.00,,,0.00,Wunderground v.1.15,2013-01-26 17:07:00,
2013-01-26 11:12:00,67.7,63.4,30.21,ENE,70,0.0,0.0,86,0.00,,,0.00,Wunderground v.1.15,2013-01-26 17:12:00,
2013-01-26 11:22:00,68.5,64.1,30.21,ENE,70,0.0,0.0,86,0.00,,,0.00,Wunderground v.1.15,2013-01-26 17:22:00,
2013-01-26 11:27:00,69.0,64.0,30.21,ENE,70,0.0,0.0,84,0.00,,,0.00,Wunderground v.1.15,2013-01-26 17:27:00,
2013-01-26 11:32:00,69.4,64.4,30.21,ENE,70,0.0,0.0,84,0.00,,,0.00,Wunderground v.1.15,2013-01-26 17:32:00,
2013-01-26 11:37:00,69.5,63.8,30.20,SSE,165,0.0,0.0,82,0.00,,,0.00,Wunderground v.1.15,2013-01-26 17:37:00,
2013-01-26 11:42:00,69.7,64.0,30.20,SSE,166,0.0,0.0,82,0.00,,,0.00,Wunderground v.1.15,2013-01-26 17:42:00,
2013-01-26 11:47:00,69.6,63.9,30.20,SSE,166,0.0,0.0,82,0.00,,,0.00,Wunderground v.1.15,2013-01-26 17:47:00,
2013-01-26 11:52:00,69.6,63.9,30.20,SSE,166,0.0,0.0,82,0.00,,,0.00,Wunderground v.1.15,2013-01-26 17:52:00,
2013-01-26 11:57:00,69.4,63.7,30.20,SSE,166,0.0,0.0,82,0.00,,,0.00,Wunderground v.1.15,2013-01-26 17:57:00,
2013-01-26 12:07:00,69.1,63.7,30.19,SSE,166,0.0,0.0,83,0.00,,,0.00,Wunderground v.1.15,2013-01-26 18:07:00,
2013-01-26 12:12:00,69.2,63.5,30.19,SSE,166,0.0,0.0,82,0.00,,,0.00,Wunderground v.1.15,2013-01-26 18:12:00,
2013-01-26 12:17:00,69.2,63.5,30.19,SSE,166,0.0,0.0,82,0.00,,,0.00,Wunderground v.1.15,2013-01-26 18:17:00,
2013-01-26 12:22:00,69.2,63.5,30.18,SSE,166,0.0,0.0,82,0.00,,,0.00,Wunderground v.1.15,2013-01-26 18:22:00,
2013-01-26 12:27:00,69.0,63.3,30.18,SSE,167,0.0,1.0,82,0.00,,,0.00,Wunderground v.1.15,2013-01-26 18:27:00,
2013-01-26 12:32:00,68.9,63.2,30.18,SSE,167,0.0,1.0,82,0.00,,,0.00,Wunderground v.1.15,2013-01-26 18:32:00,
2013-01-26 12:37:00,68.9,63.2,30.18,SSE,167,0.0,0.0,82,0.00,,,0.00,Wunderground v.1.15,2013-01-26 18:37:00,
2013-01-26 12:42:00,68.8,63.1,30.18,SSE,167,0.0,0.0,82,0.00,,,0.00,Wunderground v.1.15,2013-01-26 18:42:00,
2013-01-26 12:47:00,68.7,63.0,30.18,SSE,167,0.0,0.0,82,0.00,,,0.00,Wunderground v.1.15,2013-01-26 18:47:00,
2013-01-26 12:52:00,68.7,63.3,30.18,SSE,167,0.0,0.0,83,0.00,,,0.00,Wunderground v.1.15,2013-01-26 18:52:00,
2013-01-26 13:07:00,69.1,63.7,30.18,South,186,0.0,2.0,83,0.00,,,0.00,Wunderground v.1.15,2013-01-26 19:07:00,
2013-01-26 13:12:00,69.0,63.3,30.17,South,184,0.0,2.0,82,0.00,,,0.00,Wunderground v.1.15,2013-01-26 19:12:00,
2013-01-26 13:22:00,68.5,63.1,30.17,South,185,0.0,2.0,83,0.00,,,0.00,Wunderground v.1.15,2013-01-26 19:22:00,
2013-01-26 13:27:00,68.1,62.7,30.17,South,183,0.0,2.0,83,0.00,,,0.00,Wunderground v.1.15,2013-01-26 19:27:00,
2013-01-26 13:32:00,67.6,62.3,30.17,South,186,1.0,4.0,83,0.00,,,0.00,Wunderground v.1.15,2013-01-26 19:32:00,
2013-01-26 13:37:00,66.9,61.9,30.17,South,178,1.0,1.0,84,0.00,,,0.00,Wunderground v.1.15,2013-01-26 19:37:00,
2013-01-26 13:42:00,66.5,61.5,30.17,South,186,1.0,1.0,84,0.00,,,0.00,Wunderground v.1.15,2013-01-26 19:42:00,
2013-01-26 13:47:00,66.3,61.7,30.17,SSW,198,1.0,1.0,85,0.00,,,0.00,Wunderground v.1.15,2013-01-26 19:47:00,
2013-01-26 13:52:00,66.4,61.8,30.17,South,188,1.0,1.0,85,0.00,,,0.00,Wunderground v.1.15,2013-01-26 19:52:00,
2013-01-26 13:57:00,66.4,61.8,30.17,South,180,1.0,1.0,85,0.00,,,0.00,Wunderground v.1.15,2013-01-26 19:57:00,
2013-01-26 14:07:00,66.6,62.3,30.17,South,180,0.0,0.0,86,0.00,,,0.00,Wunderground v.1.15,2013-01-26 20:07:00,
2013-01-26 14:12:00,67.1,62.4,30.16,South,190,0.0,0.0,85,0.00,,,0.00,Wunderground v.1.15,2013-01-26 20:12:00,
2013-01-26 14:17:00,67.3,62.6,30.16,South,190,0.0,0.0,85,0.00,,,0.00,Wunderground v.1.15,2013-01-26 20:17:00,
2013-01-26 14:22:00,67.5,62.5,30.16,South,186,0.0,1.0,84,0.00,,,0.00,Wunderground v.1.15,2013-01-26 20:22:00,
2013-01-26 14:27:00,67.6,62.6,30.17,South,186,0.0,0.0,84,0.00,,,0.00,Wunderground v.1.15,2013-01-26 20:27:00,
2013-01-26 14:32:00,67.7,62.3,30.17,South,188,0.0,1.0,83,0.00,,,0.00,Wunderground v.1.15,2013-01-26 20:32:00,
2013-01-26 14:37:00,67.7,62.3,30.17,South,189,0.0,0.0,83,0.00,,,0.00,Wunderground v.1.15,2013-01-26 20:37:00,
2013-01-26 14:42:00,67.7,62.3,30.17,SSE,168,1.0,1.0,83,0.00,,,0.00,Wunderground v.1.15,2013-01-26 20:42:00,
2013-01-26 14:47:00,67.6,62.3,30.16,South,171,1.0,1.0,83,0.00,,,0.00,Wunderground v.1.15,2013-01-26 20:47:00,
2013-01-26 14:52:00,67.5,62.2,30.17,South,171,0.0,1.0,83,0.00,,,0.00,Wunderground v.1.15,2013-01-26 20:52:00,
2013-01-26 14:57:00,67.4,62.1,30.16,South,183,0.0,0.0,83,0.00,,,0.00,Wunderground v.1.15,2013-01-26 20:57:00,
2013-01-26 15:07:00,67.2,61.9,30.16,South,173,1.0,1.0,83,0.00,,,0.00,Wunderground v.1.15,2013-01-26 21:07:00,
2013-01-26 15:12:00,67.2,61.9,30.16,South,176,1.0,1.0,83,0.00,,,0.00,Wunderground v.1.15,2013-01-26 21:12:00,
2013-01-26 15:17:00,67.1,61.8,30.16,South,176,0.0,0.0,83,0.00,,,0.00,Wunderground v.1.15,2013-01-26 21:17:00,
2013-01-26 15:22:00,67.0,62.0,30.16,South,176,0.0,0.0,84,0.00,,,0.00,Wunderground v.1.15,2013-01-26 21:22:00,
2013-01-26 15:27:00,67.0,62.0,30.16,South,182,0.0,2.0,84,0.00,,,0.00,Wunderground v.1.15,2013-01-26 21:27:00,
2013-01-26 15:32:00,66.8,61.8,30.16,South,182,0.0,2.0,84,0.00,,,0.00,Wunderground v.1.15,2013-01-26 21:32:00,
2013-01-26 15:37:00,66.7,61.7,30.16,South,182,0.0,0.0,84,0.00,,,0.00,Wunderground v.1.15,2013-01-26 21:37:00,
2013-01-26 15:42:00,66.6,61.6,30.16,South,182,0.0,0.0,84,0.00,,,0.00,Wunderground v.1.15,2013-01-26 21:42:00,
2013-01-26 15:47:00,66.4,61.4,30.16,South,182,0.0,0.0,84,0.00,,,0.00,Wunderground v.1.15,2013-01-26 21:47:00,
2013-01-26 15:57:00,66.0,61.4,30.16,South,182,0.0,0.0,85,0.00,,,0.00,Wunderground v.1.15,2013-01-26 21:57:00,
2013-01-26 16:07:00,65.7,61.1,30.16,South,182,0.0,0.0,85,0.00,,,0.00,Wunderground v.1.15,2013-01-26 22:07:00,
2013-01-26 16:12:00,65.6,61.0,30.16,South,182,0.0,2.0,85,0.00,,,0.00,Wunderground v.1.15,2013-01-26 22:12:00,
2013-01-26 16:17:00,65.5,60.9,30.16,South,182,0.0,0.0,85,0.00,,,0.00,Wunderground v.1.15,2013-01-26 22:17:00,
2013-01-26 16:22:00,65.4,61.1,30.16,South,180,0.0,0.0,86,0.00,,,0.00,Wunderground v.1.15,2013-01-26 22:22:00,
2013-01-26 16:27:00,65.2,60.9,30.16,South,180,0.0,1.0,86,0.00,,,0.00,Wunderground v.1.15,2013-01-26 22:27:00,
2013-01-26 16:32:00,65.1,60.8,30.17,South,180,0.0,1.0,86,0.00,,,0.00,Wunderground v.1.15,2013-01-26 22:32:00,
2013-01-26 16:37:00,65.0,60.7,30.17,South,180,0.0,0.0,86,0.00,,,0.00,Wunderground v.1.15,2013-01-26 22:37:00,
2013-01-26 16:42:00,64.9,60.6,30.17,South,180,0.0,0.0,86,0.00,,,0.00,Wunderground v.1.15,2013-01-26 22:42:00,
2013-01-26 16:47:00,64.8,60.5,30.17,South,180,0.0,0.0,86,0.00,,,0.00,Wunderground v.1.15,2013-01-26 22:47:00,
2013-01-26 16:52:00,64.6,60.3,30.17,South,180,0.0,0.0,86,0.00,,,0.00,Wunderground v.1.15,2013-01-26 22:52:00,
2013-01-26 16:57:00,64.5,60.5,30.17,South,180,0.0,0.0,87,0.00,,,0.00,Wunderground v.1.15,2013-01-26 22:57:00,
2013-01-26 17:07:00,64.2,60.2,30.17,South,180,0.0,0.0,87,0.00,,,0.00,Wunderground v.1.15,2013-01-26 23:07:00,
2013-01-26 17:12:00,64.0,60.1,30.17,South,180,0.0,0.0,87,0.00,,,0.00,Wunderground v.1.15,2013-01-26 23:12:00,
2013-01-26 17:17:00,63.8,60.2,30.17,South,180,0.0,0.0,88,0.00,,,0.00,Wunderground v.1.15,2013-01-26 23:17:00,
2013-01-26 17:22:00,63.7,60.1,30.17,South,180,0.0,0.0,88,0.00,,,0.00,Wunderground v.1.15,2013-01-26 23:22:00,
2013-01-26 17:27:00,63.5,59.9,30.17,South,180,0.0,0.0,88,0.00,,,0.00,Wunderground v.1.15,2013-01-26 23:27:00,
2013-01-26 17:32:00,63.2,59.6,30.17,South,180,0.0,0.0,88,0.00,,,0.00,Wunderground v.1.15,2013-01-26 23:32:00,
2013-01-26 17:37:00,63.0,59.4,30.17,South,180,0.0,0.0,88,0.00,,,0.00,Wunderground v.1.15,2013-01-26 23:37:00,
2013-01-26 17:42:00,62.8,59.5,30.17,South,180,0.0,0.0,89,0.00,,,0.00,Wunderground v.1.15,2013-01-26 23:42:00,
2013-01-26 17:47:00,62.6,59.3,30.17,South,180,0.0,0.0,89,0.00,,,0.00,Wunderground v.1.15,2013-01-26 23:47:00,
2013-01-26 17:52:00,62.5,59.5,30.17,South,180,0.0,0.0,90,0.00,,,0.00,Wunderground v.1.15,2013-01-26 23:52:00,
2013-01-26 17:57:00,62.4,59.4,30.18,South,180,0.0,0.0,90,0.00,,,0.00,Wunderground v.1.15,2013-01-26 23:57:00,
2013-01-26 18:07:00,62.5,59.8,30.18,South,180,0.0,0.0,91,0.00,,,0.00,Wunderground v.1.15,2013-01-27 00:07:00,
2013-01-26 18:17:00,62.6,59.9,30.18,South,180,0.0,0.0,91,0.00,,,0.00,Wunderground v.1.15,2013-01-27 00:17:00,
2013-01-26 18:22:00,62.6,59.9,30.18,South,180,0.0,0.0,91,0.00,,,0.00,Wunderground v.1.15,2013-01-27 00:22:00,
2013-01-26 18:27:00,62.6,59.9,30.18,South,180,0.0,0.0,91,0.00,,,0.00,Wunderground v.1.15,2013-01-27 00:27:00,
2013-01-26 18:32:00,62.5,59.8,30.18,South,180,0.0,0.0,91,0.00,,,0.00,Wunderground v.1.15,2013-01-27 00:32:00,
2013-01-26 18:37:00,62.4,59.7,30.18,South,180,0.0,0.0,91,0.00,,,0.00,Wunderground v.1.15,2013-01-27 00:37:00,
2013-01-26 18:47:00,62.2,59.8,30.18,South,180,0.0,0.0,92,0.00,,,0.00,Wunderground v.1.15,2013-01-27 00:47:00,
2013-01-26 18:52:00,62.1,59.4,30.18,South,180,0.0,0.0,91,0.00,,,0.00,Wunderground v.1.15,2013-01-27 00:52:00,
2013-01-26 18:57:00,62.0,59.6,30.18,South,180,0.0,0.0,92,0.00,,,0.00,Wunderground v.1.15,2013-01-27 00:57:00,
2013-01-26 19:07:00,61.6,59.3,30.18,South,180,0.0,0.0,92,0.00,,,0.00,Wunderground v.1.15,2013-01-27 01:07:00,
2013-01-26 19:12:00,61.5,59.2,30.18,South,180,0.0,0.0,92,0.00,,,0.00,Wunderground v.1.15,2013-01-27 01:12:00,
2013-01-26 19:17:00,61.3,59.0,30.18,South,180,0.0,0.0,92,0.00,,,0.00,Wunderground v.1.15,2013-01-27 01:17:00,
2013-01-26 19:22:00,61.2,58.9,30.18,South,180,0.0,0.0,92,0.00,,,0.00,Wunderground v.1.15,2013-01-27 01:22:00,
2013-01-26 19:27:00,60.9,58.6,30.19,South,180,0.0,0.0,92,0.00,,,0.00,Wunderground v.1.15,2013-01-27 01:27:00,
2013-01-26 19:32:00,60.7,58.4,30.19,South,180,0.0,0.0,92,0.00,,,0.00,Wunderground v.1.15,2013-01-27 01:32:00,
2013-01-26 19:37:00,60.5,58.5,30.19,South,180,0.0,0.0,93,0.00,,,0.00,Wunderground v.1.15,2013-01-27 01:37:00,
2013-01-26 19:42:00,60.4,58.4,30.19,South,180,0.0,0.0,93,0.00,,,0.00,Wunderground v.1.15,2013-01-27 01:42:00,
2013-01-26 19:47:00,60.2,58.2,30.19,South,180,0.0,0.0,93,0.00,,,0.00,Wunderground v.1.15,2013-01-27 01:47:00,
2013-01-26 19:52:00,60.0,58.0,30.19,South,180,0.0,0.0,93,0.00,,,0.00,Wunderground v.1.15,2013-01-27 01:52:00,
2013-01-26 19:57:00,59.8,57.8,30.19,South,180,0.0,0.0,93,0.00,,,0.00,Wunderground v.1.15,2013-01-27 01:57:00,
2013-01-26 20:07:00,59.6,57.6,30.19,South,180,0.0,0.0,93,0.00,,,0.00,Wunderground v.1.15,2013-01-27 02:07:00,
2013-01-26 20:12:00,59.2,57.5,30.19,South,180,0.0,0.0,94,0.00,,,0.00,Wunderground v.1.15,2013-01-27 02:12:00,
2013-01-26 20:17:00,59.1,57.4,30.20,South,180,0.0,0.0,94,0.00,,,0.00,Wunderground v.1.15,2013-01-27 02:17:00,
2013-01-26 20:22:00,59.1,57.4,30.20,South,180,0.0,0.0,94,0.00,,,0.00,Wunderground v.1.15,2013-01-27 02:22:00,
2013-01-26 20:27:00,59.0,57.3,30.19,South,180,0.0,0.0,94,0.00,,,0.00,Wunderground v.1.15,2013-01-27 02:27:00,
2013-01-26 20:32:00,59.0,57.3,30.20,South,180,0.0,0.0,94,0.00,,,0.00,Wunderground v.1.15,2013-01-27 02:32:00,
2013-01-26 20:37:00,59.0,57.6,30.19,South,180,0.0,0.0,95,0.00,,,0.00,Wunderground v.1.15,2013-01-27 02:37:00,
2013-01-26 20:42:00,58.7,57.3,30.20,South,180,0.0,0.0,95,0.00,,,0.00,Wunderground v.1.15,2013-01-27 02:42:00,
2013-01-26 20:47:00,58.6,57.2,30.20,South,180,0.0,0.0,95,0.00,,,0.00,Wunderground v.1.15,2013-01-27 02:47:00,
2013-01-26 20:52:00,58.6,57.2,30.20,South,180,0.0,0.0,95,0.00,,,0.00,Wunderground v.1.15,2013-01-27 02:52:00,
2013-01-26 20:57:00,58.4,57.0,30.20,South,180,0.0,0.0,95,0.00,,,0.00,Wunderground v.1.15,2013-01-27 02:57:00,
2013-01-26 21:07:00,58.2,56.8,30.20,South,180,0.0,0.0,95,0.00,,,0.00,Wunderground v.1.15,2013-01-27 03:07:00,
2013-01-26 21:12:00,58.2,56.8,30.20,South,180,0.0,0.0,95,0.00,,,0.00,Wunderground v.1.15,2013-01-27 03:12:00,
2013-01-26 21:17:00,58.1,56.7,30.20,South,180,0.0,0.0,95,0.00,,,0.00,Wunderground v.1.15,2013-01-27 03:17:00,
2013-01-26 21:22:00,58.0,56.9,30.20,South,180,0.0,0.0,96,0.00,,,0.00,Wunderground v.1.15,2013-01-27 03:22:00,
2013-01-26 21:27:00,57.8,56.7,30.20,South,180,0.0,0.0,96,0.00,,,0.00,Wunderground v.1.15,2013-01-27 03:27:00,
2013-01-26 21:32:00,57.6,56.2,30.21,South,180,0.0,0.0,95,0.00,,,0.00,Wunderground v.1.15,2013-01-27 03:32:00,
2013-01-26 21:37:00,57.5,56.1,30.21,South,180,0.0,0.0,95,0.00,,,0.00,Wunderground v.1.15,2013-01-27 03:37:00,
2013-01-26 21:42:00,57.4,56.3,30.21,South,180,0.0,0.0,96,0.00,,,0.00,Wunderground v.1.15,2013-01-27 03:42:00,
2013-01-26 21:47:00,57.4,56.3,30.21,South,180,0.0,0.0,96,0.00,,,0.00,Wunderground v.1.15,2013-01-27 03:47:00,
2013-01-26 21:52:00,57.2,56.1,30.21,South,179,0.0,0.0,96,0.00,,,0.00,Wunderground v.1.15,2013-01-27 03:52:00,
2013-01-26 21:57:00,57.1,55.7,30.22,South,180,0.0,0.0,95,0.00,,,0.00,Wunderground v.1.15,2013-01-27 03:57:00,
2013-01-26 22:07:00,56.9,55.8,30.22,South,180,0.0,0.0,96,0.00,,,0.00,Wunderground v.1.15,2013-01-27 04:07:00,
2013-01-26 22:12:00,56.8,55.7,30.22,South,179,0.0,0.0,96,0.00,,,0.00,Wunderground v.1.15,2013-01-27 04:12:00,
2013-01-26 22:17:00,56.7,55.6,30.22,South,179,0.0,0.0,96,0.00,,,0.00,Wunderground v.1.15,2013-01-27 04:17:00,
2013-01-26 22:22:00,56.6,55.5,30.22,South,179,0.0,0.0,96,0.00,,,0.00,Wunderground v.1.15,2013-01-27 04:22:00,
2013-01-26 22:27:00,56.5,55.4,30.22,South,180,0.0,0.0,96,0.00,,,0.00,Wunderground v.1.15,2013-01-27 04:27:00,
2013-01-26 22:32:00,56.6,55.5,30.22,South,180,0.0,0.0,96,0.00,,,0.00,Wunderground v.1.15,2013-01-27 04:32:00,
2013-01-26 22:37:00,56.5,55.4,30.22,South,180,0.0,0.0,96,0.00,,,0.00,Wunderground v.1.15,2013-01-27 04:37:00,
2013-01-26 22:42:00,56.5,55.4,30.22,South,179,0.0,0.0,96,0.00,,,0.00,Wunderground v.1.15,2013-01-27 04:42:00,
2013-01-26 22:47:00,56.4,55.3,30.22,South,179,0.0,0.0,96,0.00,,,0.00,Wunderground v.1.15,2013-01-27 04:47:00,
2013-01-26 22:52:00,56.3,55.2,30.22,South,180,0.0,0.0,96,0.00,,,0.00,Wunderground v.1.15,2013-01-27 04:52:00,
2013-01-26 22:57:00,56.2,55.1,30.22,South,179,0.0,0.0,96,0.00,,,0.00,Wunderground v.1.15,2013-01-27 04:57:00,
2013-01-26 23:07:00,56.2,55.1,30.22,South,180,0.0,0.0,96,0.00,,,0.00,Wunderground v.1.15,2013-01-27 05:07:00,
2013-01-26 23:12:00,56.2,55.1,30.22,South,179,0.0,0.0,96,0.00,,,0.00,Wunderground v.1.15,2013-01-27 05:12:00,
2013-01-26 23:17:00,56.2,55.4,30.22,South,179,0.0,0.0,97,0.00,,,0.00,Wunderground v.1.15,2013-01-27 05:17:00,
2013-01-26 23:22:00,56.4,55.6,30.22,South,179,0.0,0.0,97,0.00,,,0.00,Wunderground v.1.15,2013-01-27 05:22:00,
2013-01-26 23:27:00,56.6,55.8,30.22,South,180,0.0,0.0,97,0.00,,,0.00,Wunderground v.1.15,2013-01-27 05:27:00,
2013-01-26 23:32:00,56.7,55.9,30.22,South,179,0.0,0.0,97,0.00,,,0.00,Wunderground v.1.15,2013-01-27 05:32:00,
2013-01-26 23:37:00,56.8,56.0,30.22,South,180,0.0,0.0,97,0.00,,,0.00,Wunderground v.1.15,2013-01-27 05:37:00,
2013-01-26 23:42:00,56.7,55.9,30.22,South,179,0.0,0.0,97,0.00,,,0.00,Wunderground v.1.15,2013-01-27 05:42:00,
2013-01-26 23:47:00,56.7,55.9,30.22,South,179,0.0,0.0,97,0.00,,,0.00,Wunderground v.1.15,2013-01-27 05:47:00,
2013-01-26 23:52:00,56.6,55.8,30.21,South,179,0.0,0.0,97,0.00,,,0.00,Wunderground v.1.15,2013-01-27 05:52:00,
2013-01-26 23:57:00,56.5,55.4,30.22,NE,40,0.0,0.0,96,0.00,,,0.00,Wunderground v.1.15,2013-01-27 05:57:00,